sensor_id;sensor_type;location;lat;lon;timestamp;pressure;altitude;pressure_sealevel;temperature;humidity
11605;BME280;5858;43.076;25.626;2023-01-31T00:00:32;98735.69;;;0.04;97.48
11605;BME280;5858;43.076;25.626;2023-01-31T00:02:59;98718.38;;;0.01;97.52
11605;BME280;5858;43.076;25.626;2023-01-31T00:05:27;98711.75;;;0.07;97.28
11605;BME280;5858;43.076;25.626;2023-01-31T00:07:55;98632.72;;;-0.53;95.90
11605;BME280;5858;43.076;25.626;2023-01-31T00:10:23;98733.22;;;0.12;96.98
11605;BME280;5858;43.076;25.626;2023-01-31T00:12:50;98701.44;;;-0.06;97.97
11605;BME280;5858;43.076;25.626;2023-01-31T00:15:18;98656.06;;;-0.39;97.47
11605;BME280;5858;43.076;25.626;2023-01-31T00:17:46;98691.75;;;-0.06;97.58
11605;BME280;5858;43.076;25.626;2023-01-31T00:20:14;98692.19;;;-0.01;97.52
11605;BME280;5858;43.076;25.626;2023-01-31T00:22:43;98708.69;;;0.02;97.51
11605;BME280;5858;43.076;25.626;2023-01-31T00:25:10;98763.31;;;0.49;97.85
11605;BME280;5858;43.076;25.626;2023-01-31T00:27:37;98636.31;;;-0.33;97.90
11605;BME280;5858;43.076;25.626;2023-01-31T00:30:06;98609.78;;;-0.51;97.38
11605;BME280;5858;43.076;25.626;2023-01-31T00:32:35;98781.75;;;0.59;96.88
11605;BME280;5858;43.076;25.626;2023-01-31T00:35:05;98776.00;;;0.44;97.41
11605;BME280;5858;43.076;25.626;2023-01-31T00:37:32;98671.75;;;-0.27;98.35
11605;BME280;5858;43.076;25.626;2023-01-31T00:39:59;98683.66;;;-0.23;98.11
11605;BME280;5858;43.076;25.626;2023-01-31T00:42:27;98761.75;;;0.47;98.57
11605;BME280;5858;43.076;25.626;2023-01-31T00:44:57;98767.00;;;0.47;98.33
11605;BME280;5858;43.076;25.626;2023-01-31T00:47:24;98750.84;;;0.21;97.94
11605;BME280;5858;43.076;25.626;2023-01-31T00:49:51;98794.63;;;0.52;98.22
11605;BME280;5858;43.076;25.626;2023-01-31T00:52:21;98738.25;;;0.24;98.58
11605;BME280;5858;43.076;25.626;2023-01-31T00:54:49;98699.44;;;0.07;98.43
11605;BME280;5858;43.076;25.626;2023-01-31T00:57:16;98671.06;;;-0.20;98.30
11605;BME280;5858;43.076;25.626;2023-01-31T00:59:46;98697.72;;;-0.04;98.40
11605;BME280;5858;43.076;25.626;2023-01-31T01:02:16;98695.09;;;-0.04;97.80
11605;BME280;5858;43.076;25.626;2023-01-31T01:04:45;98687.59;;;-0.08;97.55
11605;BME280;5858;43.076;25.626;2023-01-31T01:07:12;98787.59;;;0.62;97.32
11605;BME280;5858;43.076;25.626;2023-01-31T01:09:41;98595.13;;;-0.53;96.92
11605;BME280;5858;43.076;25.626;2023-01-31T01:12:08;98792.31;;;0.69;96.12
11605;BME280;5858;43.076;25.626;2023-01-31T01:14:35;98791.06;;;0.73;95.34
11605;BME280;5858;43.076;25.626;2023-01-31T01:17:03;98690.84;;;0.05;94.87
11605;BME280;5858;43.076;25.626;2023-01-31T01:19:30;98785.22;;;0.59;94.80
11605;BME280;5858;43.076;25.626;2023-01-31T01:22:00;98679.97;;;-0.11;94.54
11605;BME280;5858;43.076;25.626;2023-01-31T01:24:29;98713.50;;;0.27;94.68
11605;BME280;5858;43.076;25.626;2023-01-31T01:26:59;98734.72;;;0.45;94.62
11605;BME280;5858;43.076;25.626;2023-01-31T01:29:29;98718.25;;;0.43;94.29
11605;BME280;5858;43.076;25.626;2023-01-31T01:31:57;98656.75;;;-0.06;94.24
11605;BME280;5858;43.076;25.626;2023-01-31T01:34:27;98753.34;;;0.53;94.15
11605;BME280;5858;43.076;25.626;2023-01-31T01:36:58;98734.50;;;0.57;94.25
11605;BME280;5858;43.076;25.626;2023-01-31T01:39:44;98801.84;;;1.00;94.00
11605;BME280;5858;43.076;25.626;2023-01-31T01:42:19;98759.22;;;0.76;93.54
11605;BME280;5858;43.076;25.626;2023-01-31T01:44:57;98616.72;;;-0.19;93.04
11605;BME280;5858;43.076;25.626;2023-01-31T01:47:36;98740.81;;;0.45;92.16
11605;BME280;5858;43.076;25.626;2023-01-31T01:50:18;98637.78;;;-0.10;92.95
11605;BME280;5858;43.076;25.626;2023-01-31T01:52:55;98713.31;;;0.49;94.12
11605;BME280;5858;43.076;25.626;2023-01-31T01:55:33;98669.72;;;0.16;94.04
11605;BME280;5858;43.076;25.626;2023-01-31T01:58:13;98772.88;;;1.00;94.71
11605;BME280;5858;43.076;25.626;2023-01-31T02:00:55;98686.25;;;0.38;94.35
11605;BME280;5858;43.076;25.626;2023-01-31T02:03:40;98589.47;;;-0.18;95.65
11605;BME280;5858;43.076;25.626;2023-01-31T02:06:33;98582.69;;;-0.11;96.70
11605;BME280;5858;43.076;25.626;2023-01-31T02:09:16;98574.25;;;-0.15;96.79
11605;BME280;5858;43.076;25.626;2023-01-31T02:11:51;98772.72;;;1.11;97.43
11605;BME280;5858;43.076;25.626;2023-01-31T02:14:26;98720.94;;;0.62;98.56
11605;BME280;5858;43.076;25.626;2023-01-31T02:17:04;98767.97;;;0.86;99.34
11605;BME280;5858;43.076;25.626;2023-01-31T02:20:10;98625.97;;;0.25;99.53
11605;BME280;5858;43.076;25.626;2023-01-31T02:33:11;98588.56;;;0.02;100.00
11605;BME280;5858;43.076;25.626;2023-01-31T02:36:01;98757.19;;;1.08;100.00
11605;BME280;5858;43.076;25.626;2023-01-31T02:38:50;98693.81;;;0.71;100.00
11605;BME280;5858;43.076;25.626;2023-01-31T02:41:49;98633.19;;;0.32;100.00
11605;BME280;5858;43.076;25.626;2023-01-31T02:44:49;98705.56;;;0.67;100.00
11605;BME280;5858;43.076;25.626;2023-01-31T02:48:18;98752.63;;;1.10;100.00
11605;BME280;5858;43.076;25.626;2023-01-31T02:51:17;98767.31;;;1.13;100.00
11605;BME280;5858;43.076;25.626;2023-01-31T02:54:12;98677.16;;;0.61;100.00
11605;BME280;5858;43.076;25.626;2023-01-31T02:57:07;98701.56;;;0.73;99.59
11605;BME280;5858;43.076;25.626;2023-01-31T03:00:07;98593.00;;;0.02;99.58
11605;BME280;5858;43.076;25.626;2023-01-31T03:12:39;98600.25;;;0.38;83.59
11605;BME280;5858;43.076;25.626;2023-01-31T03:15:44;98654.88;;;0.65;83.65
11605;BME280;5858;43.076;25.626;2023-01-31T03:18:43;98757.75;;;1.41;82.28
11605;BME280;5858;43.076;25.626;2023-01-31T03:24:49;98783.00;;;1.82;83.58
11605;BME280;5858;43.076;25.626;2023-01-31T03:27:36;98681.78;;;1.07;83.75
11605;BME280;5858;43.076;25.626;2023-01-31T03:43:54;98762.63;;;1.55;86.95
11605;BME280;5858;43.076;25.626;2023-01-31T03:46:48;98766.66;;;1.59;87.31
11605;BME280;5858;43.076;25.626;2023-01-31T03:49:57;98794.53;;;1.71;86.82
11605;BME280;5858;43.076;25.626;2023-01-31T03:53:03;98757.50;;;1.53;80.00
11605;BME280;5858;43.076;25.626;2023-01-31T03:59:29;98795.06;;;1.75;76.38
11605;BME280;5858;43.076;25.626;2023-01-31T04:02:06;98766.22;;;1.64;76.32
11605;BME280;5858;43.076;25.626;2023-01-31T04:07:56;98780.34;;;1.82;76.47
11605;BME280;5858;43.076;25.626;2023-01-31T04:10:33;98719.22;;;1.30;77.08
11605;BME280;5858;43.076;25.626;2023-01-31T04:13:14;98775.50;;;1.77;76.86
11605;BME280;5858;43.076;25.626;2023-01-31T04:16:19;98833.78;;;2.03;78.14
11605;BME280;5858;43.076;25.626;2023-01-31T04:19:15;98678.44;;;1.15;77.28
11605;BME280;5858;43.076;25.626;2023-01-31T04:25:07;98765.41;;;1.63;78.31
11605;BME280;5858;43.076;25.626;2023-01-31T04:27:51;98709.34;;;1.42;78.74
11605;BME280;5858;43.076;25.626;2023-01-31T04:30:39;98829.31;;;2.13;79.50
11605;BME280;5858;43.076;25.626;2023-01-31T04:39:48;98733.09;;;1.51;82.32
11605;BME280;5858;43.076;25.626;2023-01-31T04:42:31;98760.09;;;1.73;82.30
11605;BME280;5858;43.076;25.626;2023-01-31T04:45:15;98716.72;;;1.48;83.41
11605;BME280;5858;43.076;25.626;2023-01-31T04:48:05;98726.44;;;1.47;82.96
11605;BME280;5858;43.076;25.626;2023-01-31T04:50:46;98836.97;;;2.16;82.76
11605;BME280;5858;43.076;25.626;2023-01-31T04:53:36;98714.50;;;1.43;83.13
11605;BME280;5858;43.076;25.626;2023-01-31T04:56:21;98800.88;;;1.88;83.18
11605;BME280;5858;43.076;25.626;2023-01-31T04:59:15;98829.91;;;2.07;83.71
11605;BME280;5858;43.076;25.626;2023-01-31T05:02:34;98758.88;;;1.57;84.13
11605;BME280;5858;43.076;25.626;2023-01-31T05:08:12;98838.47;;;2.19;83.92
11605;BME280;5858;43.076;25.626;2023-01-31T05:13:58;98836.41;;;2.13;85.20
11605;BME280;5858;43.076;25.626;2023-01-31T05:16:51;98830.84;;;2.16;85.11
11605;BME280;5858;43.076;25.626;2023-01-31T05:19:42;98797.56;;;1.96;85.00
11605;BME280;5858;43.076;25.626;2023-01-31T05:22:31;98846.25;;;2.20;85.01
11605;BME280;5858;43.076;25.626;2023-01-31T05:28:27;98894.88;;;2.18;85.49
11605;BME280;5858;43.076;25.626;2023-01-31T05:31:15;98794.50;;;1.81;85.28
11605;BME280;5858;43.076;25.626;2023-01-31T05:34:07;98874.44;;;2.20;85.48
11605;BME280;5858;43.076;25.626;2023-01-31T05:37:01;98833.50;;;2.16;85.49
11605;BME280;5858;43.076;25.626;2023-01-31T05:40:02;98852.38;;;2.21;86.36
11605;BME280;5858;43.076;25.626;2023-01-31T05:42:46;98852.91;;;2.25;86.29
11605;BME280;5858;43.076;25.626;2023-01-31T05:46:12;98850.56;;;2.21;86.80
11605;BME280;5858;43.076;25.626;2023-01-31T05:49:06;98786.09;;;1.48;87.07
11605;BME280;5858;43.076;25.626;2023-01-31T05:51:40;98825.63;;;1.97;87.36
11605;BME280;5858;43.076;25.626;2023-01-31T05:57:53;98704.91;;;0.94;87.89
11605;BME280;5858;43.076;25.626;2023-01-31T06:00:49;98864.19;;;2.17;87.33
11605;BME280;5858;43.076;25.626;2023-01-31T06:03:32;98882.50;;;2.28;87.36
11605;BME280;5858;43.076;25.626;2023-01-31T06:06:02;98867.09;;;2.24;87.89
11605;BME280;5858;43.076;25.626;2023-01-31T06:08:45;98833.25;;;2.00;87.33
11605;BME280;5858;43.076;25.626;2023-01-31T06:11:34;98752.78;;;1.47;87.38
11605;BME280;5858;43.076;25.626;2023-01-31T06:14:10;98891.13;;;2.20;87.18
11605;BME280;5858;43.076;25.626;2023-01-31T06:16:37;98900.41;;;2.25;87.91
11605;BME280;5858;43.076;25.626;2023-01-31T06:19:07;98896.66;;;2.27;87.45
11605;BME280;5858;43.076;25.626;2023-01-31T06:21:35;98740.69;;;1.35;87.40
11605;BME280;5858;43.076;25.626;2023-01-31T06:24:48;98913.59;;;2.34;87.35
11605;BME280;5858;43.076;25.626;2023-01-31T06:27:38;98855.59;;;2.05;87.05
11605;BME280;5858;43.076;25.626;2023-01-31T06:30:22;98746.94;;;1.24;87.38
11605;BME280;5858;43.076;25.626;2023-01-31T06:32:50;98738.75;;;1.27;87.36
11605;BME280;5858;43.076;25.626;2023-01-31T06:35:29;98922.94;;;2.38;87.11
11605;BME280;5858;43.076;25.626;2023-01-31T06:38:14;98820.47;;;1.76;87.03
11605;BME280;5858;43.076;25.626;2023-01-31T06:40:56;98915.00;;;2.38;86.94
11605;BME280;5858;43.076;25.626;2023-01-31T06:46:21;98794.81;;;1.58;86.28
11605;BME280;5858;43.076;25.626;2023-01-31T06:48:57;98725.88;;;1.24;86.85
11605;BME280;5858;43.076;25.626;2023-01-31T06:51:29;98926.38;;;2.48;86.67
11605;BME280;5858;43.076;25.626;2023-01-31T06:54:10;98918.19;;;2.51;86.36
11605;BME280;5858;43.076;25.626;2023-01-31T06:56:38;98916.63;;;2.59;85.73
11605;BME280;5858;43.076;25.626;2023-01-31T06:59:11;98854.47;;;2.08;86.01
11605;BME280;5858;43.076;25.626;2023-01-31T07:01:38;98788.28;;;1.72;85.62
11605;BME280;5858;43.076;25.626;2023-01-31T07:04:12;98936.09;;;2.58;86.43
11605;BME280;5858;43.076;25.626;2023-01-31T07:10:19;98836.56;;;2.11;85.57
11605;BME280;5858;43.076;25.626;2023-01-31T07:13:08;98753.47;;;1.59;85.47
11605;BME280;5858;43.076;25.626;2023-01-31T07:15:45;98954.81;;;2.74;86.37
11605;BME280;5858;43.076;25.626;2023-01-31T07:18:15;98780.81;;;1.58;86.50
11605;BME280;5858;43.076;25.626;2023-01-31T07:20:42;98894.28;;;2.34;85.82
11605;BME280;5858;43.076;25.626;2023-01-31T07:23:12;98771.66;;;1.52;85.21
11605;BME280;5858;43.076;25.626;2023-01-31T07:25:41;98856.53;;;2.14;85.38
11605;BME280;5858;43.076;25.626;2023-01-31T07:28:19;98940.69;;;2.46;86.42
11605;BME280;5858;43.076;25.626;2023-01-31T07:30:49;98955.53;;;2.66;86.39
11605;BME280;5858;43.076;25.626;2023-01-31T07:33:17;98882.94;;;2.14;86.47
11605;BME280;5858;43.076;25.626;2023-01-31T07:36:00;98804.38;;;1.69;86.50
11605;BME280;5858;43.076;25.626;2023-01-31T07:38:30;98851.72;;;1.90;86.51
11605;BME280;5858;43.076;25.626;2023-01-31T07:41:03;98903.47;;;2.20;86.76
11605;BME280;5858;43.076;25.626;2023-01-31T07:43:35;98968.59;;;2.68;86.48
11605;BME280;5858;43.076;25.626;2023-01-31T07:46:13;98852.81;;;1.97;86.90
11605;BME280;5858;43.076;25.626;2023-01-31T07:48:42;98903.72;;;2.36;86.81
11605;BME280;5858;43.076;25.626;2023-01-31T07:51:10;98928.06;;;2.49;86.21
11605;BME280;5858;43.076;25.626;2023-01-31T07:53:38;98861.81;;;2.14;86.51
11605;BME280;5858;43.076;25.626;2023-01-31T07:56:11;98929.25;;;2.65;86.24
11605;BME280;5858;43.076;25.626;2023-01-31T07:58:40;98789.78;;;1.84;85.90
11605;BME280;5858;43.076;25.626;2023-01-31T08:01:10;98960.63;;;2.97;85.81
11605;BME280;5858;43.076;25.626;2023-01-31T08:03:57;98902.13;;;2.72;85.76
11605;BME280;5858;43.076;25.626;2023-01-31T08:06:33;98806.72;;;2.01;85.17
11605;BME280;5858;43.076;25.626;2023-01-31T08:09:01;98902.13;;;2.72;85.29
11605;BME280;5858;43.076;25.626;2023-01-31T08:11:31;98818.91;;;2.12;85.39
11605;BME280;5858;43.076;25.626;2023-01-31T08:13:58;98968.13;;;3.29;85.35
11605;BME280;5858;43.076;25.626;2023-01-31T08:16:30;98973.69;;;3.35;85.07
11605;BME280;5858;43.076;25.626;2023-01-31T08:19:04;98896.94;;;2.90;84.65
11605;BME280;5858;43.076;25.626;2023-01-31T08:21:31;98969.28;;;3.54;85.62
11605;BME280;5858;43.076;25.626;2023-01-31T08:23:58;98790.59;;;2.51;85.00
11605;BME280;5858;43.076;25.626;2023-01-31T08:26:26;98976.63;;;3.60;84.36
11605;BME280;5858;43.076;25.626;2023-01-31T08:28:55;98939.63;;;3.32;84.29
11605;BME280;5858;43.076;25.626;2023-01-31T08:31:25;98909.28;;;3.27;84.10
11605;BME280;5858;43.076;25.626;2023-01-31T08:33:54;98940.94;;;3.46;83.89
11605;BME280;5858;43.076;25.626;2023-01-31T08:36:27;98974.72;;;3.79;83.80
11605;BME280;5858;43.076;25.626;2023-01-31T08:38:56;98906.63;;;3.54;83.34
11605;BME280;5858;43.076;25.626;2023-01-31T08:41:29;98943.06;;;3.60;82.64
11605;BME280;5858;43.076;25.626;2023-01-31T08:43:58;98926.16;;;3.71;82.88
11605;BME280;5858;43.076;25.626;2023-01-31T08:46:27;98992.00;;;4.19;82.86
11605;BME280;5858;43.076;25.626;2023-01-31T08:48:57;98970.97;;;3.82;83.21
11605;BME280;5858;43.076;25.626;2023-01-31T08:51:24;98869.69;;;3.17;83.11
11605;BME280;5858;43.076;25.626;2023-01-31T08:53:55;98991.38;;;3.90;83.03
11605;BME280;5858;43.076;25.626;2023-01-31T08:56:25;98999.31;;;3.90;83.51
11605;BME280;5858;43.076;25.626;2023-01-31T08:58:53;98972.66;;;3.73;83.05
11605;BME280;5858;43.076;25.626;2023-01-31T09:01:22;98992.75;;;3.94;83.00
11605;BME280;5858;43.076;25.626;2023-01-31T09:03:50;98947.19;;;3.72;82.83
11605;BME280;5858;43.076;25.626;2023-01-31T09:06:22;98904.59;;;3.48;83.37
11605;BME280;5858;43.076;25.626;2023-01-31T09:08:50;99008.78;;;4.10;83.03
11605;BME280;5858;43.076;25.626;2023-01-31T09:11:17;99003.88;;;4.15;82.81
11605;BME280;5858;43.076;25.626;2023-01-31T09:13:57;99006.03;;;4.29;82.65
11605;BME280;5858;43.076;25.626;2023-01-31T09:16:26;99022.66;;;4.39;81.93
11605;BME280;5858;43.076;25.626;2023-01-31T09:18:53;98938.28;;;4.09;81.87
11605;BME280;5858;43.076;25.626;2023-01-31T09:21:22;98979.44;;;4.57;82.00
11605;BME280;5858;43.076;25.626;2023-01-31T09:23:54;98993.66;;;4.73;81.39
11605;BME280;5858;43.076;25.626;2023-01-31T09:26:22;98987.81;;;4.70;81.83
11605;BME280;5858;43.076;25.626;2023-01-31T09:28:49;98996.44;;;4.72;81.79
11605;BME280;5858;43.076;25.626;2023-01-31T09:31:22;98810.75;;;3.70;81.27
11605;BME280;5858;43.076;25.626;2023-01-31T09:33:51;98981.66;;;4.87;81.28
11605;BME280;5858;43.076;25.626;2023-01-31T09:36:23;98878.00;;;4.21;80.49
11605;BME280;5858;43.076;25.626;2023-01-31T09:39:02;98889.06;;;3.98;80.64
11605;BME280;5858;43.076;25.626;2023-01-31T09:42:00;98837.81;;;3.82;81.16
11605;BME280;5858;43.076;25.626;2023-01-31T09:44:40;98843.25;;;3.80;80.61
11605;BME280;5858;43.076;25.626;2023-01-31T09:50:34;98941.19;;;4.33;80.92
11605;BME280;5858;43.076;25.626;2023-01-31T09:53:02;98945.78;;;4.31;81.20
11605;BME280;5858;43.076;25.626;2023-01-31T09:55:37;98872.38;;;3.80;81.43
11605;BME280;5858;43.076;25.626;2023-01-31T09:58:17;98894.06;;;4.01;82.05
11605;BME280;5858;43.076;25.626;2023-01-31T10:01:05;98923.00;;;4.21;82.08
11605;BME280;5858;43.076;25.626;2023-01-31T10:03:53;98881.66;;;4.02;81.69
11605;BME280;5858;43.076;25.626;2023-01-31T10:06:40;98945.75;;;4.49;81.66
11605;BME280;5858;43.076;25.626;2023-01-31T10:09:19;98936.78;;;4.42;81.10
11605;BME280;5858;43.076;25.626;2023-01-31T10:11:53;99001.75;;;4.72;80.86
11605;BME280;5858;43.076;25.626;2023-01-31T10:14:30;98982.59;;;4.78;81.92
11605;BME280;5858;43.076;25.626;2023-01-31T10:17:06;98886.03;;;4.11;81.02
11605;BME280;5858;43.076;25.626;2023-01-31T10:19:41;98960.97;;;4.91;79.41
11605;BME280;5858;43.076;25.626;2023-01-31T10:22:18;98960.31;;;4.89;79.91
11605;BME280;5858;43.076;25.626;2023-01-31T10:24:51;98959.03;;;5.01;79.74
11605;BME280;5858;43.076;25.626;2023-01-31T10:27:35;98908.59;;;4.85;79.42
11605;BME280;5858;43.076;25.626;2023-01-31T10:30:16;98866.13;;;4.51;79.33
11605;BME280;5858;43.076;25.626;2023-01-31T10:32:50;98895.00;;;4.62;79.33
11605;BME280;5858;43.076;25.626;2023-01-31T10:35:28;98939.75;;;4.65;80.02
11605;BME280;5858;43.076;25.626;2023-01-31T10:38:03;98936.09;;;4.84;80.43
11605;BME280;5858;43.076;25.626;2023-01-31T10:40:38;98916.31;;;4.52;81.46
11605;BME280;5858;43.076;25.626;2023-01-31T10:43:17;98879.94;;;4.36;81.22
11605;BME280;5858;43.076;25.626;2023-01-31T10:45:47;98910.81;;;4.71;80.16
11605;BME280;5858;43.076;25.626;2023-01-31T10:48:18;98832.28;;;4.36;80.50
11605;BME280;5858;43.076;25.626;2023-01-31T10:50:56;98820.19;;;4.34;79.83
11605;BME280;5858;43.076;25.626;2023-01-31T10:53:37;98884.22;;;4.81;79.07
11605;BME280;5858;43.076;25.626;2023-01-31T10:56:12;98848.47;;;4.59;79.42
11605;BME280;5858;43.076;25.626;2023-01-31T10:58:44;98963.28;;;5.20;79.32
11605;BME280;5858;43.076;25.626;2023-01-31T11:01:12;98929.53;;;4.96;79.21
11605;BME280;5858;43.076;25.626;2023-01-31T11:03:44;98955.56;;;5.00;80.16
11605;BME280;5858;43.076;25.626;2023-01-31T11:06:14;98938.34;;;5.04;80.71
11605;BME280;5858;43.076;25.626;2023-01-31T11:08:46;98836.97;;;4.25;80.59
11605;BME280;5858;43.076;25.626;2023-01-31T11:11:18;98841.88;;;4.37;81.90
11605;BME280;5858;43.076;25.626;2023-01-31T11:13:56;98797.16;;;4.08;81.68
11605;BME280;5858;43.076;25.626;2023-01-31T11:16:27;98890.44;;;4.72;81.57
11605;BME280;5858;43.076;25.626;2023-01-31T11:19:00;98944.28;;;4.98;81.64
11605;BME280;5858;43.076;25.626;2023-01-31T11:21:33;98874.75;;;4.27;81.48
11605;BME280;5858;43.076;25.626;2023-01-31T11:24:06;98954.94;;;4.81;80.98
11605;BME280;5858;43.076;25.626;2023-01-31T11:26:47;98876.09;;;4.31;81.74
11605;BME280;5858;43.076;25.626;2023-01-31T11:29:21;98915.75;;;4.66;81.28
11605;BME280;5858;43.076;25.626;2023-01-31T11:31:51;98920.38;;;4.90;82.01
11605;BME280;5858;43.076;25.626;2023-01-31T11:34:29;98829.19;;;4.23;80.69
11605;BME280;5858;43.076;25.626;2023-01-31T11:37:13;98886.06;;;4.63;81.91
11605;BME280;5858;43.076;25.626;2023-01-31T11:39:53;98948.28;;;5.02;81.06
11605;BME280;5858;43.076;25.626;2023-01-31T11:42:26;98872.34;;;4.67;80.16
11605;BME280;5858;43.076;25.626;2023-01-31T11:44:57;98766.44;;;4.16;80.17
11605;BME280;5858;43.076;25.626;2023-01-31T11:47:39;98915.69;;;5.18;79.41
11605;BME280;5858;43.076;25.626;2023-01-31T11:50:37;98912.28;;;5.26;79.18
11605;BME280;5858;43.076;25.626;2023-01-31T11:53:15;98880.38;;;5.10;78.17
11605;BME280;5858;43.076;25.626;2023-01-31T11:55:45;98769.28;;;4.48;78.09
11605;BME280;5858;43.076;25.626;2023-01-31T11:58:18;98930.88;;;5.34;77.16
11605;BME280;5858;43.076;25.626;2023-01-31T12:00:55;98860.22;;;4.83;78.51
11605;BME280;5858;43.076;25.626;2023-01-31T12:03:24;98861.56;;;4.87;78.68
11605;BME280;5858;43.076;25.626;2023-01-31T12:06:03;98861.06;;;4.91;78.14
11605;BME280;5858;43.076;25.626;2023-01-31T12:08:34;98919.09;;;5.28;79.27
11605;BME280;5858;43.076;25.626;2023-01-31T12:11:24;98769.72;;;4.35;80.43
11605;BME280;5858;43.076;25.626;2023-01-31T12:14:00;98800.84;;;4.41;81.11
11605;BME280;5858;43.076;25.626;2023-01-31T12:16:32;98939.81;;;5.25;82.11
11605;BME280;5858;43.076;25.626;2023-01-31T12:19:11;98798.59;;;4.55;81.72
11605;BME280;5858;43.076;25.626;2023-01-31T12:21:49;98835.56;;;4.90;82.03
11605;BME280;5858;43.076;25.626;2023-01-31T12:24:29;98923.28;;;5.39;80.45
11605;BME280;5858;43.076;25.626;2023-01-31T12:27:10;98890.06;;;5.27;81.05
11605;BME280;5858;43.076;25.626;2023-01-31T12:32:52;98915.88;;;5.59;79.41
11605;BME280;5858;43.076;25.626;2023-01-31T12:35:38;98955.16;;;5.55;79.74
11605;BME280;5858;43.076;25.626;2023-01-31T12:38:21;98928.97;;;5.52;79.58
11605;BME280;5858;43.076;25.626;2023-01-31T12:41:01;98839.88;;;4.91;79.70
11605;BME280;5858;43.076;25.626;2023-01-31T12:46:36;98936.06;;;5.44;80.05
11605;BME280;5858;43.076;25.626;2023-01-31T12:52:22;98824.09;;;4.82;79.65
11605;BME280;5858;43.076;25.626;2023-01-31T12:55:02;98955.66;;;5.51;79.66
11605;BME280;5858;43.076;25.626;2023-01-31T12:57:39;98944.41;;;5.57;80.45
11605;BME280;5858;43.076;25.626;2023-01-31T13:00:23;98868.28;;;5.15;80.35
11605;BME280;5858;43.076;25.626;2023-01-31T13:03:07;98859.13;;;5.01;80.38
11605;BME280;5858;43.076;25.626;2023-01-31T13:05:41;98804.66;;;4.39;80.71
11605;BME280;5858;43.076;25.626;2023-01-31T13:08:16;98775.84;;;4.36;80.84
11605;BME280;5858;43.076;25.626;2023-01-31T13:10:46;98938.97;;;5.24;81.00
11605;BME280;5858;43.076;25.626;2023-01-31T13:13:17;98861.72;;;4.59;82.24
11605;BME280;5858;43.076;25.626;2023-01-31T13:15:54;98902.34;;;4.68;84.20
11605;BME280;5858;43.076;25.626;2023-01-31T13:18:29;98869.31;;;4.54;83.84
11605;BME280;5858;43.076;25.626;2023-01-31T13:21:03;98921.41;;;4.71;85.27
11605;BME280;5858;43.076;25.626;2023-01-31T13:23:38;98962.44;;;4.85;85.50
11605;BME280;5858;43.076;25.626;2023-01-31T13:26:10;98981.31;;;4.64;85.50
11605;BME280;5858;43.076;25.626;2023-01-31T13:28:45;98888.72;;;4.19;87.09
11605;BME280;5858;43.076;25.626;2023-01-31T13:31:31;98857.22;;;3.72;87.35
11605;BME280;5858;43.076;25.626;2023-01-31T13:34:04;98801.19;;;3.24;87.84
11605;BME280;5858;43.076;25.626;2023-01-31T13:36:37;98967.28;;;4.28;88.49
11605;BME280;5858;43.076;25.626;2023-01-31T13:39:13;98966.91;;;4.41;88.73
11605;BME280;5858;43.076;25.626;2023-01-31T13:41:43;98975.28;;;4.54;87.96
11605;BME280;5858;43.076;25.626;2023-01-31T13:44:12;98910.91;;;4.00;88.44
11605;BME280;5858;43.076;25.626;2023-01-31T13:46:50;98938.75;;;4.04;87.73
11605;BME280;5858;43.076;25.626;2023-01-31T13:49:35;98801.13;;;3.15;89.53
11605;BME280;5858;43.076;25.626;2023-01-31T13:52:09;98883.31;;;3.67;89.10
11605;BME280;5858;43.076;25.626;2023-01-31T13:54:44;98846.50;;;3.56;89.59
11605;BME280;5858;43.076;25.626;2023-01-31T13:57:23;98905.03;;;3.89;88.74
11605;BME280;5858;43.076;25.626;2023-01-31T13:59:53;98919.63;;;3.93;89.23
11605;BME280;5858;43.076;25.626;2023-01-31T14:02:23;98973.00;;;4.24;90.43
11605;BME280;5858;43.076;25.626;2023-01-31T14:04:52;98935.31;;;3.76;90.79
11605;BME280;5858;43.076;25.626;2023-01-31T14:07:22;98978.94;;;4.35;90.84
11605;BME280;5858;43.076;25.626;2023-01-31T14:13:21;98979.97;;;4.07;91.46
11605;BME280;5858;43.076;25.626;2023-01-31T14:15:54;98925.38;;;3.88;90.58
11605;BME280;5858;43.076;25.626;2023-01-31T14:18:40;98859.19;;;3.53;90.91
11605;BME280;5858;43.076;25.626;2023-01-31T14:27:16;98931.84;;;3.76;90.90
11605;BME280;5858;43.076;25.626;2023-01-31T14:29:45;98954.09;;;4.01;91.17
11605;BME280;5858;43.076;25.626;2023-01-31T14:32:14;98959.63;;;3.90;91.34
11605;BME280;5858;43.076;25.626;2023-01-31T14:34:49;98927.38;;;3.76;90.66
11605;BME280;5858;43.076;25.626;2023-01-31T14:37:27;98942.25;;;3.77;90.47
11605;BME280;5858;43.076;25.626;2023-01-31T14:40:19;98985.09;;;4.08;90.79
11605;BME280;5858;43.076;25.626;2023-01-31T14:43:03;98919.56;;;3.57;90.32
11605;BME280;5858;43.076;25.626;2023-01-31T14:45:48;98842.63;;;3.05;89.96
11605;BME280;5858;43.076;25.626;2023-01-31T14:48:41;99014.28;;;4.26;90.51
11605;BME280;5858;43.076;25.626;2023-01-31T14:51:31;98993.28;;;3.97;90.55
11605;BME280;5858;43.076;25.626;2023-01-31T14:54:32;98921.88;;;3.42;91.00
11605;BME280;5858;43.076;25.626;2023-01-31T14:57:23;99035.94;;;4.12;90.66
11605;BME280;5858;43.076;25.626;2023-01-31T14:59:57;98892.69;;;3.07;90.71
11605;BME280;5858;43.076;25.626;2023-01-31T15:02:42;98861.56;;;3.01;90.98
11605;BME280;5858;43.076;25.626;2023-01-31T15:05:15;99035.41;;;4.08;91.09
11605;BME280;5858;43.076;25.626;2023-01-31T15:08:05;99072.72;;;4.15;90.65
11605;BME280;5858;43.076;25.626;2023-01-31T15:11:01;98917.13;;;3.19;90.38
11605;BME280;5858;43.076;25.626;2023-01-31T15:13:39;99033.72;;;3.90;91.27
11605;BME280;5858;43.076;25.626;2023-01-31T15:16:18;99054.78;;;4.09;91.33
11605;BME280;5858;43.076;25.626;2023-01-31T15:18:53;98905.97;;;3.25;90.80
11605;BME280;5858;43.076;25.626;2023-01-31T15:21:32;98994.81;;;3.45;91.05
11605;BME280;5858;43.076;25.626;2023-01-31T15:24:04;98900.63;;;3.07;91.52
11605;BME280;5858;43.076;25.626;2023-01-31T15:26:35;99069.19;;;3.97;92.30
11605;BME280;5858;43.076;25.626;2023-01-31T15:29:05;99078.38;;;4.02;92.81
11605;BME280;5858;43.076;25.626;2023-01-31T15:31:40;99031.88;;;3.63;93.02
11605;BME280;5858;43.076;25.626;2023-01-31T15:34:20;99084.63;;;4.01;92.70
11605;BME280;5858;43.076;25.626;2023-01-31T15:37:03;99080.91;;;3.94;92.41
11605;BME280;5858;43.076;25.626;2023-01-31T15:39:47;99091.41;;;3.86;92.60